Latest Coastal Weather Observations for Sydney Harbour

IDN60701

Issued at 4:51 am EST Wednesday 28 June 2017 (issued every 10 minutes, with the page automatically refreshed every 10 minutes)

About coastal observations | Map of coastal stations | Coastal observations for NSW | Marine services | Other Formats
Station Details ID: 066196 Name: WEDDING CAKE WEST Lat: -33.84 Lon: 151.26 Height: 6.0 m
Data from the previous 72 hours. | See also: Recent months at Sydney Harbour
Date/Time
EST
Temp
°C
Wind Pressure Rain since
9am
mm
Weather Cloud Vis
km
Sea
Height
m
Swell
Dir  Spd
kts
Gust
kts
hPa Trend Height
m
Period
s
Dir
28/04:30am 12.9 W 5 7 - - - - - - - - - -
28/04:00am 12.9 W 2 5 - - - - - - - - - -
28/03:30am 12.8 W 6 8 - - - - - - - - - -
28/03:00am 12.8 W 4 6 - - - - - - - - - -
28/02:30am 12.9 W 5 6 - - - - - - - - - -
28/02:00am 12.7 WNW 6 8 - - - - - - - - - -
28/01:30am 12.9 W 6 7 - - - - - - - - - -
28/01:00am 13.1 W 3 7 - - - - - - - - - -
28/12:30am 13.4 W 7 8 - - - - - - - - - -
28/12:00am 13.3 WNW 9 11 - - - - - - - - - -
 
Date/Time
EST
Temp
°C
Wind Pressure Rain since
9am
mm
Weather Cloud Vis
km
Sea
Height
m
Swell
Dir  Spd
kts
Gust
kts
hPa Trend Height
m
Period
s
Dir
27/11:30pm 13.5 W 5 8 - - - - - - - - - -
27/11:00pm 13.3 W 6 8 - - - - - - - - - -
27/10:30pm 13.6 W 9 12 - - - - - - - - - -
27/10:00pm 13.6 W 6 8 - - - - - - - - - -
27/09:30pm 13.8 W 4 6 - - - - - - - - - -
27/09:00pm 14.2 W 7 9 - - - - - - - - - -
27/08:30pm 14.6 W 6 11 - - - - - - - - - -
27/08:00pm 14.7 W 5 6 - - - - - - - - - -
27/07:30pm 15.2 W 2 4 - - - - - - - - - -
27/07:00pm 15.3 W 3 4 - - - - - - - - - -
27/06:30pm 15.5 W 4 5 - - - - - - - - - -
27/06:00pm 15.3 W 4 5 - - - - - - - - - -
27/05:30pm 15.2 W 3 4 - - - - - - - - - -
27/05:00pm 15.3 W 3 4 - - - - - - - - - -
27/04:30pm 15.3 W 4 5 - - - - - - - - - -
27/04:00pm 15.3 W 4 4 - - - - - - - - - -
27/03:30pm 15.5 W 2 4 - - - - - - - - - -
27/03:00pm 15.6 W 1 4 - - - - - - - - - -
27/02:30pm 15.2 W 6 8 - - - - - - - - - -
27/02:00pm 15.1 W 7 8 - - - - - - - - - -
27/01:30pm 15.0 W 7 8 - - - - - - - - - -
27/01:00pm 14.7 W 7 9 - - - - - - - - - -
27/12:30pm 14.1 WSW 6 8 - - - - - - - - - -
27/12:00pm 13.6 WSW 7 9 - - - - - - - - - -
27/11:30am 12.9 WSW 8 10 - - - - - - - - - -
27/11:00am 12.5 WSW 9 11 - - - - - - - - - -
27/10:30am 12.3 WSW 9 11 - - - - - - - - - -
27/10:00am 11.8 WSW 7 11 - - - - - - - - - -
27/09:30am 11.4 WSW 5 8 - - - - - - - - - -
27/09:00am 10.7 WSW 7 9 - - - - - - - - - -
27/08:30am 10.3 WSW 7 9 - - - - - - - - - -
27/08:00am 10.1 W 6 7 - - - - - - - - - -
27/07:30am 9.7 W 7 10 - - - - - - - - - -
27/07:00am 9.6 WSW 7 11 - - - - - - - - - -
27/06:30am 9.7 WSW 10 14 - - - - - - - - - -
27/06:00am 10.4 WSW 6 9 - - - - - - - - - -
27/05:30am 10.8 W 9 12 - - - - - - - - - -
27/05:00am 10.6 W 6 8 - - - - - - - - - -
27/04:30am 10.3 W 6 9 - - - - - - - - - -
27/04:00am 10.5 W 7 11 - - - - - - - - - -
27/03:30am 11.1 W 7 9 - - - - - - - - - -
27/03:00am 11.6 WSW 9 11 - - - - - - - - - -
27/02:30am 11.9 WSW 13 15 - - - - - - - - - -
27/02:00am 11.8 W 13 15 - - - - - - - - - -
27/01:30am 12.1 W 10 13 - - - - - - - - - -
27/01:00am 12.5 W 9 11 - - - - - - - - - -
27/12:30am 12.8 W 7 8 - - - - - - - - - -
27/12:00am 12.9 SE 5 7 - - - - - - - - - -
 
Date/Time
EST
Temp
°C
Wind Pressure Rain since
9am
mm
Weather Cloud Vis
km
Sea
Height
m
Swell
Dir  Spd
kts
Gust
kts
hPa Trend Height
m
Period
s
Dir
26/11:30pm 13.5 SE 6 8 - - - - - - - - - -
26/11:00pm 13.8 SE 5 8 - - - - - - - - - -
26/10:30pm 13.9 SE 5 7 - - - - - - - - - -
26/10:00pm 14.6 SE 3 4 - - - - - - - - - -
26/09:30pm 14.8 SE 4 5 - - - - - - - - - -
26/09:00pm 15.0 SE 2 4 - - - - - - - - - -
26/08:30pm 15.1 CALM 0 0 - - - - - - - - - -
26/08:00pm 14.9 CALM 0 1 - - - - - - - - - -
26/07:30pm 15.0 SE 3 4 - - - - - - - - - -
26/07:00pm 15.3 SE 4 5 - - - - - - - - - -
26/06:30pm 15.5 SE 1 4 - - - - - - - - - -
26/06:00pm 15.4 SE 3 4 - - - - - - - - - -
26/05:30pm 15.7 SE 4 5 - - - - - - - - - -
26/05:00pm 16.2 SE 5 6 - - - - - - - - - -
26/04:30pm 16.5 SE 7 8 - - - - - - - - - -
26/04:00pm 17.7 SE 6 8 - - - - - - - - - -
26/03:30pm 17.9 SE 5 7 - - - - - - - - - -
26/03:00pm 18.0 WSW 5 6 - - - - - - - - - -
26/02:30pm 18.2 WSW 3 5 - - - - - - - - - -
26/02:00pm 16.7 WSW 5 7 - - - - - - - - - -
26/01:30pm 16.2 WSW 7 9 - - - - - - - - - -
26/01:00pm 15.9 W 7 8 - - - - - - - - - -
26/12:30pm 15.6 W 7 9 - - - - - - - - - -
26/12:00pm 15.1 WSW 9 11 - - - - - - - - - -
26/11:30am 14.7 WSW 14 18 - - - - - - - - - -
26/11:00am 14.2 WSW 14 18 - - - - - - - - - -
26/10:30am 13.4 WSW 13 17 - - - - - - - - - -
26/10:00am 13.0 WSW 12 16 - - - - - - - - - -
26/09:30am 12.4 WSW 12 15 - - - - - - - - - -
26/09:00am 12.0 WSW 11 15 - - - - - - - - - -
26/08:30am 11.9 WSW 12 15 - - - - - - - - - -
26/08:00am 11.5 WSW 11 15 - - - - - - - - - -
26/07:30am 11.0 W 11 14 - - - - - - - - - -
26/07:00am 11.0 W 13 16 - - - - - - - - - -
26/06:30am 11.5 WSW 12 16 - - - - - - - - - -
26/06:00am 11.8 WSW 11 15 - - - - - - - - - -
26/05:30am 11.8 WSW 8 13 - - - - - - - - - -
26/05:00am 12.7 WSW 9 12 - - - - - - - - - -
26/04:30am 12.4 W 7 9 - - - - - - - - - -
26/04:00am 12.8 W 7 9 - - - - - - - - - -
26/03:30am 11.9 W 6 7 - - - - - - - - - -
26/03:00am 12.1 W 9 11 - - - - - - - - - -
26/02:30am 11.6 WSW 8 9 - - - - - - - - - -
26/02:00am 12.1 WSW 7 9 - - - - - - - - - -
26/01:30am 12.4 WSW 9 10 - - - - - - - - - -
26/01:00am 12.4 WSW 9 11 - - - - - - - - - -
26/12:30am 12.6 WSW 8 11 - - - - - - - - - -
26/12:00am 12.5 WNW 7 8 - - - - - - - - - -
 
Date/Time
EST
Temp
°C
Wind Pressure Rain since
9am
mm
Weather Cloud Vis
km
Sea
Height
m
Swell
Dir  Spd
kts
Gust
kts
hPa Trend Height
m
Period
s
Dir
25/11:30pm 13.1 WNW 6 6 - - - - - - - - - -
25/11:00pm 13.7 WNW 5 6 - - - - - - - - - -
25/10:30pm 14.3 WNW 7 8 - - - - - - - - - -
25/10:00pm 14.1 WNW 5 6 - - - - - - - - - -
25/09:30pm 15.0 WNW 7 9 - - - - - - - - - -
25/09:00pm 14.4 W 4 5 - - - - - - - - - -
25/08:30pm 14.9 W 6 7 - - - - - - - - - -
25/08:00pm 15.0 W 9 11 - - - - - - - - - -
25/07:30pm 15.5 W 9 11 - - - - - - - - - -
25/07:00pm 16.2 WSW 10 16 - - - - - - - - - -
25/06:30pm 16.2 W 9 12 - - - - - - - - - -
25/06:00pm 16.9 SW 14 19 - - - - - - - - - -
25/05:30pm 17.4 SW 11 14 - - - - - - - - - -
25/05:00pm 17.4 WSW 8 12 - - - - - - - - - -
25/04:30pm 17.3 WSW 5 12 - - - - - - - - - -
25/04:00pm 17.4 WSW 6 8 - - - - - - - - - -
25/03:30pm 18.1 WSW 6 9 - - - - - - - - - -
25/03:00pm 17.6 WSW 8 11 - - - - - - - - - -
25/02:30pm 17.4 WSW 11 15 - - - - - - - - - -
25/02:00pm 17.0 W 12 17 - - - - - - - - - -
25/01:30pm 16.5 W 12 17 - - - - - - - - - -
25/01:00pm 16.1 WNW 13 18 - - - - - - - - - -
25/12:30pm 15.8 W 15 21 - - - - - - - - - -
25/12:00pm 15.4 W 14 21 - - - - - - - - - -
25/11:30am 15.0 WNW 10 15 - - - - - - - - - -
25/11:00am 14.6 W 10 12 - - - - - - - - - -
25/10:30am 14.5 WNW 10 13 - - - - - - - - - -
25/10:00am 13.9 WNW 11 14 - - - - - - - - - -
25/09:30am 12.2 W 6 8 - - - - - - - - - -
25/09:00am 11.8 W 5 6 - - - - - - - - - -
25/08:30am 11.4 W 5 6 - - - - - - - - - -
25/08:00am 10.9 WNW 10 12 - - - - - - - - - -
25/07:30am 10.6 W 12 15 - - - - - - - - - -
25/07:00am 9.8 W 11 13 - - - - - - - - - -
25/06:30am 9.6 W 8 9 - - - - - - - - - -
25/06:00am 9.8 W 9 11 - - - - - - - - - -
25/05:30am 10.6 W 8 10 - - - - - - - - - -
25/05:00am 10.6 W 8 10 - - - - - - - - - -

Other Formats:

Comma delimited format used in spreadsheet applications
http://www.bom.gov.au/fwo/IDN60701/IDN60701.95766.axf

JavaScript Object Notation format (JSON) in row-major order
http://www.bom.gov.au/fwo/IDN60701/IDN60701.95766.json